Time;durP1;ratioP1;P1;durP2;ratioP2;P2;SDS_P1;SDS_P2;PMS_P1;PMS_P2;Temp;Humidity;BMP_temperature;BMP_pressure;BME280_temperature;BME280_humidity;BME280_pressure;Samples;Min_cycle;Max_cycle;Signal;HPM_P1;HPM_P2
2023/03/14 00:02:00;;;;;;;0.00;0.00;;;;;;;5.51;73.54;98756.72;7352006;19;20038;-61
2023/03/14 00:04:26;;;;;;;0.00;0.00;;;;;;;5.49;73.80;98776.66;7347763;19;20006;-64
2023/03/14 00:06:51;;;;;;;0.00;0.00;;;;;;;5.47;73.72;98772.38;7344559;19;20322;-61
2023/03/14 00:09:17;;;;;;;0.00;0.00;;;;;;;5.35;74.01;98769.31;7348812;19;20025;-61
2023/03/14 00:11:43;;;;;;;0.10;0.10;;;;;;;5.44;74.01;98793.16;7350470;19;20035;-61
2023/03/14 00:14:08;;;;;;;0.00;0.00;;;;;;;5.43;73.52;98793.22;7355204;19;20018;-64
2023/03/14 00:16:33;;;;;;;0.03;0.03;;;;;;;5.41;73.62;98806.19;7356995;19;20011;-61
2023/03/14 00:18:59;;;;;;;0.10;0.10;;;;;;;5.41;73.74;98815.72;7356954;19;20041;-62
2023/03/14 00:21:25;;;;;;;0.00;0.00;;;;;;;5.30;74.14;98808.28;7353606;19;20071;-61
2023/03/14 00:23:51;;;;;;;0.00;0.00;;;;;;;5.38;73.91;98821.84;7361151;19;20006;-61
2023/03/14 00:26:19;;;;;;;0.00;0.00;;;;;;;5.28;73.99;98825.63;7360084;19;20047;-61
2023/03/14 00:28:44;;;;;;;0.00;0.00;;;;;;;5.35;74.15;98847.81;7361420;19;20026;-62
2023/03/14 00:31:13;;;;;;;0.00;0.00;;;;;;;5.36;74.09;98844.31;7357466;19;20094;-61
2023/03/14 00:33:38;;;;;;;0.10;0.10;;;;;;;5.36;74.72;98859.00;7361237;19;20045;-61
2023/03/14 00:36:08;;;;;;;0.10;0.10;;;;;;;5.37;74.80;98860.69;7357834;19;20367;-61
2023/03/14 00:38:35;;;;;;;0.00;0.00;;;;;;;5.37;75.03;98864.16;7359502;19;20010;-62
2023/03/14 00:41:16;;;;;;;0.00;0.00;;;;;;;5.41;74.87;98867.47;7356526;19;20027;-60
2023/03/14 00:43:42;;;;;;;0.10;0.10;;;;;;;5.43;75.29;98869.16;7356454;19;20455;-62
2023/03/14 00:46:08;;;;;;;0.10;0.10;;;;;;;5.45;75.20;98880.28;7358221;19;20039;-61
2023/03/14 00:48:34;;;;;;;0.00;0.00;;;;;;;5.46;75.69;98884.56;7355412;19;20597;-62
2023/03/14 00:51:00;;;;;;;0.00;0.00;;;;;;;5.34;75.29;98866.84;7358011;19;21696;-62
2023/03/14 00:53:25;;;;;;;0.00;0.00;;;;;;;5.49;75.04;98900.91;7358289;19;20007;-64
2023/03/14 00:55:50;;;;;;;0.00;0.00;;;;;;;5.45;75.01;98901.00;7357705;19;22265;-64
2023/03/14 00:58:17;;;;;;;0.00;0.00;;;;;;;5.50;75.26;98913.78;7353601;19;20913;-62
2023/03/14 01:00:44;;;;;;;0.00;0.00;;;;;;;5.51;75.52;98917.22;7360847;19;20022;-62
2023/03/14 01:03:10;;;;;;;0.10;0.10;;;;;;;5.12;75.71;98861.47;7351654;19;20833;-62
2023/03/14 01:05:36;;;;;;;0.00;0.00;;;;;;;5.54;75.89;98935.28;7357319;19;20014;-62
2023/03/14 01:08:03;;;;;;;0.00;0.00;;;;;;;5.56;75.85;98944.66;7354161;19;20014;-62
2023/03/14 01:10:28;;;;;;;0.00;0.00;;;;;;;5.60;76.18;98950.63;7357780;19;20010;-62
2023/03/14 01:12:54;;;;;;;0.10;0.10;;;;;;;5.62;76.44;98959.16;7355878;19;20018;-62
2023/03/14 01:15:20;;;;;;;0.00;0.00;;;;;;;5.67;76.24;98962.47;7355997;19;20017;-62
2023/03/14 01:17:45;;;;;;;0.10;0.10;;;;;;;5.71;76.44;98971.84;7356618;19;20015;-62
2023/03/14 01:20:13;;;;;;;0.00;0.00;;;;;;;5.73;76.56;98981.28;7359656;19;20702;-62
2023/03/14 01:22:39;;;;;;;0.10;0.10;;;;;;;5.77;76.37;98979.41;7356223;19;20348;-61
2023/03/14 01:25:10;;;;;;;0.00;0.00;;;;;;;5.80;76.52;98989.69;7355391;19;20030;-58
2023/03/14 01:27:35;;;;;;;0.10;0.10;;;;;;;5.72;76.34;98978.72;7357430;19;20595;-62
2023/03/14 01:30:02;;;;;;;0.10;0.10;;;;;;;5.75;76.15;99006.28;7357207;19;20033;-62
2023/03/14 01:32:27;;;;;;;0.00;0.00;;;;;;;5.86;76.02;99028.34;7358846;19;20018;-60
2023/03/14 01:34:53;;;;;;;0.00;0.00;;;;;;;5.88;75.79;99038.66;7357770;19;20022;-62
2023/03/14 01:37:18;;;;;;;0.00;0.00;;;;;;;5.86;75.83;99049.06;7354064;19;20038;-62
2023/03/14 01:39:44;;;;;;;0.00;0.00;;;;;;;5.86;75.85;99056.84;7355586;19;20014;-62
2023/03/14 01:42:09;;;;;;;0.00;0.00;;;;;;;5.86;75.94;99066.38;7354866;19;21291;-62
2023/03/14 01:44:59;;;;;;;0.05;0.05;;;;;;;5.86;76.02;99067.22;7351539;19;20379;-62
2023/03/14 01:47:26;;;;;;;0.00;0.00;;;;;;;5.83;75.49;99084.56;7355697;19;20021;-62
2023/03/14 01:50:12;;;;;;;0.00;0.00;;;;;;;5.82;75.75;99091.50;7357224;19;20060;-60
2023/03/14 01:52:41;;;;;;;0.00;0.00;;;;;;;5.77;75.29;99098.56;7346726;19;20010;-62
2023/03/14 01:55:13;;;;;;;0.00;0.00;;;;;;;5.76;75.90;99111.56;7355960;19;20007;-62
2023/03/14 01:57:44;;;;;;;0.10;0.10;;;;;;;5.73;75.53;99108.19;7356155;19;20049;-61
2023/03/14 02:00:14;;;;;;;0.00;0.00;;;;;;;5.71;75.59;99119.47;7358132;19;20026;-62
2023/03/14 02:02:43;;;;;;;0.00;0.00;;;;;;;5.69;75.50;99126.44;7354264;19;20006;-61
2023/03/14 02:05:10;;;;;;;0.10;0.10;;;;;;;5.65;75.55;99133.44;7355464;19;20026;-62
2023/03/14 02:07:49;;;;;;;0.00;0.00;;;;;;;5.67;75.88;99138.56;7357916;19;20006;-62
2023/03/14 02:10:16;;;;;;;0.10;0.10;;;;;;;5.51;75.28;99132.13;7355516;19;20085;-62
2023/03/14 02:12:42;;;;;;;0.03;0.03;;;;;;;5.62;75.74;99158.56;7358015;19;20123;-61
2023/03/14 02:15:08;;;;;;;0.00;0.00;;;;;;;5.61;75.67;99164.63;7356859;19;20074;-61
2023/03/14 02:17:35;;;;;;;0.00;0.00;;;;;;;5.60;75.76;99162.94;7355225;19;20010;-61
2023/03/14 02:20:38;;;;;;;0.00;0.00;;;;;;;5.61;75.68;99182.75;7355235;19;21155;-62
2023/03/14 02:23:04;;;;;;;0.00;0.00;;;;;;;5.56;75.78;99182.88;7253730;19;2004232;-62
2023/03/14 02:25:43;;;;;;;0.00;0.00;;;;;;;5.55;75.85;99188.09;7356919;19;20347;-62
2023/03/14 02:28:09;;;;;;;0.08;0.08;;;;;;;5.53;75.83;99200.25;7355463;19;20781;-64
2023/03/14 02:30:35;;;;;;;0.00;0.00;;;;;;;5.51;75.78;99194.25;7358195;19;20019;-64
2023/03/14 02:33:06;;;;;;;0.00;0.00;;;;;;;5.50;75.18;99208.09;7355255;19;20423;-64
2023/03/14 02:35:39;;;;;;;0.00;0.00;;;;;;;5.47;75.78;99193.47;7358230;19;20340;-64
2023/03/14 02:38:19;;;;;;;0.00;0.00;;;;;;;5.44;76.04;99165.94;7357279;19;20017;-64
2023/03/14 02:40:45;;;;;;;0.00;0.00;;;;;;;5.44;76.30;99157.31;7354122;19;20288;-64
2023/03/14 02:43:10;;;;;;;0.00;0.00;;;;;;;5.45;76.53;99162.44;7357168;19;22854;-64
2023/03/14 02:45:40;;;;;;;0.10;0.10;;;;;;;5.49;76.45;99185.69;7353333;19;20011;-63
2023/03/14 02:48:15;;;;;;;0.00;0.00;;;;;;;5.52;76.59;99183.00;7351546;19;20082;-63
2023/03/14 02:50:41;;;;;;;0.00;0.00;;;;;;;5.53;76.80;99179.53;7350371;19;20010;-63
2023/03/14 02:53:06;;;;;;;0.00;0.00;;;;;;;5.56;77.03;99187.22;7355344;19;20736;-64
2023/03/14 02:55:32;;;;;;;0.00;0.00;;;;;;;5.58;76.76;99208.75;7346986;19;20014;-64
2023/03/14 02:57:57;;;;;;;0.00;0.00;;;;;;;5.62;76.73;99229.31;7336678;19;20019;-64
2023/03/14 03:00:23;;;;;;;0.00;0.00;;;;;;;5.62;77.10;99239.69;7349125;19;20581;-64
2023/03/14 03:02:48;;;;;;;0.00;0.00;;;;;;;5.66;76.79;99253.41;7354959;19;20010;-63
2023/03/14 03:05:14;;;;;;;0.00;0.00;;;;;;;5.68;77.03;99262.00;7358088;19;20021;-63
2023/03/14 03:07:40;;;;;;;0.10;0.10;;;;;;;5.69;76.92;99261.09;7358260;19;20786;-64
2023/03/14 03:10:06;;;;;;;0.10;0.10;;;;;;;5.70;77.05;99265.38;7357358;19;20422;-63
2023/03/14 03:12:31;;;;;;;0.00;0.00;;;;;;;5.66;77.17;99267.19;7359908;19;20923;-63
2023/03/14 03:14:56;;;;;;;0.10;0.10;;;;;;;5.74;77.24;99269.59;7358722;19;20013;-63
2023/03/14 03:17:22;;;;;;;0.00;0.00;;;;;;;5.73;77.03;99273.09;7359876;19;20836;-63
2023/03/14 03:19:48;;;;;;;0.00;0.00;;;;;;;5.75;77.10;99284.25;7352752;19;20010;-63
2023/03/14 03:22:13;;;;;;;0.00;0.00;;;;;;;5.72;77.31;99297.25;7359891;19;20842;-63
2023/03/14 03:24:38;;;;;;;0.00;0.00;;;;;;;5.76;77.12;99309.25;7356598;19;20605;-63
2023/03/14 03:27:04;;;;;;;0.00;0.00;;;;;;;5.76;76.99;99317.03;7363454;19;20022;-63
2023/03/14 03:29:29;;;;;;;0.00;0.00;;;;;;;5.74;76.67;99316.22;7354202;19;20030;-61
2023/03/14 03:31:55;;;;;;;0.05;0.05;;;;;;;5.76;76.80;99350.69;7358264;19;20014;-63
2023/03/14 03:34:21;;;;;;;0.03;0.03;;;;;;;5.74;76.31;99357.66;7352762;19;20026;-62
2023/03/14 03:36:46;;;;;;;0.00;0.00;;;;;;;5.73;76.19;99374.94;7359199;19;20713;-63
2023/03/14 03:39:12;;;;;;;0.00;0.00;;;;;;;5.71;76.20;99373.28;7354311;19;20040;-63
2023/03/14 03:41:37;;;;;;;0.10;0.10;;;;;;;5.68;76.14;99360.41;7358007;19;20010;-63
2023/03/14 03:44:03;;;;;;;0.00;0.00;;;;;;;5.64;75.76;99362.22;7359226;19;20018;-63
2023/03/14 03:46:28;;;;;;;0.10;0.10;;;;;;;5.61;75.98;99369.19;7359190;19;20361;-63
2023/03/14 03:48:58;;;;;;;0.05;0.05;;;;;;;5.58;75.94;99366.72;7358993;19;20003;-63
2023/03/14 03:51:23;;;;;;;0.03;0.03;;;;;;;5.54;75.80;99380.59;7356674;19;20010;-63
2023/03/14 03:53:49;;;;;;;0.00;0.00;;;;;;;5.50;75.88;99400.53;7358319;19;20030;-63
2023/03/14 03:56:14;;;;;;;0.00;0.00;;;;;;;5.47;76.05;99411.81;7355328;19;20015;-63
2023/03/14 03:58:41;;;;;;;0.10;0.10;;;;;;;5.45;76.19;99404.97;7351567;19;20010;-63
2023/03/14 04:01:08;;;;;;;0.10;0.10;;;;;;;5.42;75.84;99413.66;7357313;19;20130;-63
2023/03/14 04:03:34;;;;;;;0.00;0.00;;;;;;;5.41;75.98;99448.19;7333336;19;20553;-63
2023/03/14 04:06:01;;;;;;;0.00;0.00;;;;;;;5.33;76.21;99447.50;7359971;19;20047;-63
2023/03/14 04:08:27;;;;;;;0.00;0.00;;;;;;;5.35;76.03;99466.44;7358001;19;20487;-63
2023/03/14 04:10:57;;;;;;;0.00;0.00;;;;;;;5.34;75.92;99466.47;7359964;19;20014;-63
2023/03/14 04:13:23;;;;;;;0.00;0.00;;;;;;;5.29;75.96;99482.09;7358420;19;20031;-63
2023/03/14 04:15:48;;;;;;;0.00;0.00;;;;;;;5.26;75.93;99484.75;7351550;19;20010;-63
2023/03/14 04:18:14;;;;;;;0.08;0.08;;;;;;;5.24;76.48;99486.53;7354973;19;20014;-63
2023/03/14 04:20:39;;;;;;;0.00;0.00;;;;;;;5.20;76.23;99496.06;7341057;19;20010;-63
2023/03/14 04:23:04;;;;;;;0.00;0.00;;;;;;;5.18;76.28;99507.34;7353732;19;20775;-63
2023/03/14 04:25:30;;;;;;;0.00;0.00;;;;;;;5.12;76.00;99497.09;7360369;19;20014;-63
2023/03/14 04:27:55;;;;;;;0.00;0.00;;;;;;;5.12;75.82;99517.81;7359373;19;20022;-63
2023/03/14 04:30:21;;;;;;;0.00;0.00;;;;;;;5.08;75.98;99535.16;7360272;19;20010;-63
2023/03/14 04:32:47;;;;;;;0.00;0.00;;;;;;;4.90;75.86;99507.88;7357288;19;20463;-63
2023/03/14 04:35:12;;;;;;;0.10;0.10;;;;;;;5.01;75.98;99537.84;7360385;19;20021;-63
2023/03/14 04:37:38;;;;;;;0.10;0.10;;;;;;;4.98;75.43;99548.28;7355697;19;20002;-63
2023/03/14 04:40:06;;;;;;;0.00;0.00;;;;;;;4.94;75.65;99552.66;7359394;19;20013;-64
2023/03/14 04:42:31;;;;;;;0.05;0.05;;;;;;;4.91;75.73;99560.44;7357114;19;20014;-64
2023/03/14 04:44:56;;;;;;;0.00;0.00;;;;;;;4.77;76.17;99542.63;7353458;19;22872;-63
2023/03/14 04:47:22;;;;;;;0.00;0.00;;;;;;;4.84;76.22;99559.72;7357049;19;20013;-63
2023/03/14 04:49:47;;;;;;;0.00;0.00;;;;;;;4.83;75.95;99568.38;7359750;19;20104;-63
2023/03/14 04:52:13;;;;;;;0.00;0.00;;;;;;;4.81;75.91;99584.78;7360018;19;20767;-63
2023/03/14 04:54:38;;;;;;;0.00;0.00;;;;;;;4.74;76.55;99590.94;7356749;19;20026;-63
2023/03/14 04:57:04;;;;;;;0.10;0.10;;;;;;;4.79;76.52;99596.88;7359087;19;20003;-62
2023/03/14 04:59:29;;;;;;;0.00;0.00;;;;;;;4.79;76.03;99602.06;7358698;19;20355;-63
2023/03/14 05:01:54;;;;;;;0.10;0.10;;;;;;;4.77;76.26;99604.69;7358503;19;20270;-63
2023/03/14 05:04:20;;;;;;;0.00;0.00;;;;;;;4.67;76.20;99587.63;7359450;19;20074;-63
2023/03/14 05:06:45;;;;;;;0.10;0.10;;;;;;;4.76;76.34;99618.47;7358221;19;20010;-62
2023/03/14 05:09:11;;;;;;;0.00;0.00;;;;;;;4.74;76.63;99635.75;7358743;19;20378;-63
2023/03/14 05:11:36;;;;;;;0.00;0.00;;;;;;;4.73;76.12;99649.56;7359201;19;20002;-62
2023/03/14 05:14:01;;;;;;;0.00;0.00;;;;;;;4.73;76.39;99649.56;7358476;19;20014;-63
2023/03/14 05:16:27;;;;;;;0.10;0.10;;;;;;;4.70;76.43;99649.59;7358869;19;20030;-62
2023/03/14 05:18:52;;;;;;;0.00;0.00;;;;;;;4.68;76.07;99662.56;7357365;19;20014;-63
2023/03/14 05:21:18;;;;;;;0.10;0.10;;;;;;;4.65;75.62;99661.75;7359205;19;20813;-63
2023/03/14 05:23:43;;;;;;;0.00;0.00;;;;;;;4.62;75.91;99661.81;7354871;19;20011;-63
2023/03/14 05:26:08;;;;;;;0.00;0.00;;;;;;;4.49;75.61;99648.22;7360054;19;20015;-63
2023/03/14 05:28:34;;;;;;;0.05;0.05;;;;;;;4.53;75.47;99656.78;7352751;19;20010;-63
2023/03/14 05:30:59;;;;;;;0.00;0.00;;;;;;;4.49;75.53;99665.47;7358064;19;20719;-63
2023/03/14 05:33:25;;;;;;;0.10;0.10;;;;;;;4.45;75.25;99671.53;7355293;19;20021;-63
2023/03/14 05:35:50;;;;;;;0.00;0.00;;;;;;;4.36;75.61;99670.81;7354075;19;20082;-63
2023/03/14 05:38:15;;;;;;;0.00;0.00;;;;;;;4.36;75.29;99686.31;7358145;19;20014;-63
2023/03/14 05:40:41;;;;;;;0.08;0.08;;;;;;;4.32;75.05;99683.78;7358500;19;20790;-63
2023/03/14 05:43:07;;;;;;;0.00;0.00;;;;;;;4.26;74.75;99684.72;7355098;19;20424;-63
2023/03/14 05:45:34;;;;;;;0.03;0.03;;;;;;;4.22;75.08;99695.97;7358420;19;20033;-63
2023/03/14 05:47:59;;;;;;;0.00;0.00;;;;;;;4.18;75.03;99707.22;7356683;19;20694;-63
2023/03/14 05:50:24;;;;;;;0.05;0.05;;;;;;;4.14;74.28;99705.53;7356046;19;20010;-64
2023/03/14 05:52:50;;;;;;;0.00;0.00;;;;;;;4.10;74.29;99715.06;7356362;19;20039;-63
2023/03/14 05:55:15;;;;;;;0.00;0.00;;;;;;;4.01;74.16;99715.19;7359850;19;20006;-63
2023/03/14 05:57:41;;;;;;;0.00;0.00;;;;;;;4.00;74.59;99720.34;7352950;19;20093;-63
2023/03/14 06:00:07;;;;;;;0.00;0.00;;;;;;;3.95;74.14;99719.56;7359487;19;20094;-63
2023/03/14 06:02:32;;;;;;;0.00;0.00;;;;;;;3.90;74.01;99717.91;7353200;19;20018;-63
2023/03/14 06:04:58;;;;;;;0.00;0.00;;;;;;;3.86;74.38;99726.56;7359012;19;20635;-63
2023/03/14 06:07:23;;;;;;;0.03;0.03;;;;;;;3.81;74.50;99733.50;7358268;19;20025;-63
2023/03/14 06:09:49;;;;;;;0.00;0.00;;;;;;;3.78;74.67;99743.00;7349869;19;20014;-64
2023/03/14 06:12:14;;;;;;;0.00;0.00;;;;;;;3.74;74.42;99747.31;7356161;19;20014;-63
2023/03/14 06:14:39;;;;;;;0.10;0.10;;;;;;;3.65;74.62;99742.28;7357262;19;20014;-63
2023/03/14 06:17:05;;;;;;;0.00;0.00;;;;;;;3.68;74.37;99759.44;7356476;19;20022;-62
2023/03/14 06:19:30;;;;;;;0.00;0.00;;;;;;;3.61;74.31;99753.50;7355274;19;20018;-62
2023/03/14 06:21:56;;;;;;;0.00;0.00;;;;;;;3.59;73.85;99758.66;7358850;19;20006;-63
2023/03/14 06:24:21;;;;;;;0.10;0.10;;;;;;;3.56;73.74;99763.88;7352408;19;20017;-63
2023/03/14 06:26:46;;;;;;;0.00;0.00;;;;;;;3.53;73.88;99773.34;7355863;19;20120;-63
2023/03/14 06:29:13;;;;;;;0.00;0.00;;;;;;;3.50;74.26;99786.31;7355293;19;20039;-63
2023/03/14 06:31:38;;;;;;;0.00;0.00;;;;;;;3.47;74.18;99788.91;7347040;19;20022;-63
2023/03/14 06:34:05;;;;;;;0.10;0.10;;;;;;;3.42;74.27;99790.66;7349537;19;20006;-63
2023/03/14 06:36:30;;;;;;;0.00;0.00;;;;;;;3.40;74.57;99798.44;7355891;19;20070;-63
2023/03/14 06:38:56;;;;;;;0.00;0.00;;;;;;;3.36;74.64;99802.75;7339654;19;20014;-63
2023/03/14 06:41:23;;;;;;;0.03;0.03;;;;;;;3.34;74.94;99814.78;7345060;19;20014;-63
2023/03/14 06:43:49;;;;;;;0.00;0.00;;;;;;;3.32;74.53;99816.53;7356494;19;20782;-63
2023/03/14 06:46:15;;;;;;;0.10;0.10;;;;;;;3.30;74.73;99822.59;7355640;19;22383;-63
2023/03/14 06:48:40;;;;;;;0.00;0.00;;;;;;;3.29;74.99;99831.16;7354851;19;20018;-63
2023/03/14 06:51:06;;;;;;;0.00;0.00;;;;;;;3.25;75.12;99830.34;7353142;19;20003;-63
2023/03/14 06:53:32;;;;;;;0.00;0.00;;;;;;;3.25;75.00;99834.66;7356872;19;20006;-64
2023/03/14 06:55:57;;;;;;;0.00;0.00;;;;;;;3.23;75.24;99846.69;7353683;19;20010;-63
2023/03/14 06:58:23;;;;;;;0.00;0.00;;;;;;;3.10;75.17;99826.16;7342652;19;20040;-63
2023/03/14 07:00:48;;;;;;;0.00;0.00;;;;;;;3.19;75.12;99861.34;7354386;19;20014;-64
2023/03/14 07:03:14;;;;;;;0.10;0.10;;;;;;;3.17;75.24;99857.91;7347802;19;20018;-63
2023/03/14 07:05:40;;;;;;;0.10;0.10;;;;;;;3.12;74.24;99863.09;7354386;19;20011;-64
2023/03/14 07:08:06;;;;;;;0.00;0.00;;;;;;;3.16;74.85;99876.00;7350186;19;20010;-63
2023/03/14 07:10:32;;;;;;;0.03;0.03;;;;;;;3.11;74.25;99878.59;7354119;19;20488;-63
2023/03/14 07:12:58;;;;;;;0.00;0.00;;;;;;;3.11;74.24;99894.94;7341875;19;20018;-63
2023/03/14 07:15:23;;;;;;;0.00;0.00;;;;;;;3.10;74.54;99913.00;7354746;19;20029;-64
2023/03/14 07:17:48;;;;;;;0.00;0.00;;;;;;;3.07;74.41;99908.69;7349897;19;20018;-63
2023/03/14 07:20:14;;;;;;;0.00;0.00;;;;;;;3.07;74.51;99907.84;7352333;19;20360;-63
2023/03/14 07:22:39;;;;;;;0.00;0.00;;;;;;;3.03;74.85;99900.97;7351978;19;20030;-64
2023/03/14 07:25:05;;;;;;;0.03;0.03;;;;;;;3.06;74.98;99914.72;7351167;19;20026;-64
2023/03/14 07:27:31;;;;;;;0.10;0.10;;;;;;;3.05;75.04;99923.34;7352186;19;20010;-63
2023/03/14 07:29:56;;;;;;;0.10;0.10;;;;;;;3.07;74.89;99923.31;7354771;19;20014;-63
2023/03/14 07:32:22;;;;;;;0.00;0.00;;;;;;;3.04;75.44;99923.31;7328083;19;20007;-63
2023/03/14 07:34:47;;;;;;;0.00;0.00;;;;;;;3.09;75.12;99939.63;7351684;19;20006;-63
2023/03/14 07:37:13;;;;;;;0.08;0.08;;;;;;;3.10;75.32;99938.78;7350258;19;20039;-63
2023/03/14 07:39:38;;;;;;;0.00;0.00;;;;;;;3.14;75.61;99953.38;7351188;19;20013;-63
2023/03/14 07:42:03;;;;;;;0.00;0.00;;;;;;;3.16;75.98;99956.81;7350122;19;20018;-63
2023/03/14 07:44:29;;;;;;;0.08;0.08;;;;;;;3.18;76.30;99956.81;7353361;19;20014;-63
2023/03/14 07:46:54;;;;;;;0.00;0.00;;;;;;;3.21;76.17;99967.97;7351048;19;20010;-63
2023/03/14 07:49:20;;;;;;;0.00;0.00;;;;;;;3.25;76.26;99968.81;7348193;19;20038;-62
2023/03/14 07:51:48;;;;;;;0.00;0.00;;;;;;;3.32;76.44;99976.50;7353409;19;20013;-63
2023/03/14 07:54:14;;;;;;;0.10;0.10;;;;;;;3.37;76.82;99972.19;7357473;19;20495;-63
2023/03/14 07:56:39;;;;;;;0.03;0.03;;;;;;;3.09;77.20;99925.03;7359688;19;20014;-64
2023/03/14 07:59:05;;;;;;;0.00;0.00;;;;;;;3.50;77.58;99975.56;7359017;19;20010;-64
2023/03/14 08:01:30;;;;;;;0.00;0.00;;;;;;;3.56;77.64;99979.84;7356642;19;20817;-63
2023/03/14 08:03:55;;;;;;;0.10;0.10;;;;;;;3.73;77.94;99996.06;7355306;19;20111;-63
2023/03/14 08:06:21;;;;;;;0.00;0.00;;;;;;;3.83;78.24;100000.31;7354988;19;20025;-63
2023/03/14 08:08:46;;;;;;;0.00;0.00;;;;;;;3.94;77.91;100008.00;7333377;19;20381;-63
2023/03/14 08:11:12;;;;;;;0.10;0.10;;;;;;;4.06;78.51;100013.09;7357748;19;20015;-63
2023/03/14 08:13:37;;;;;;;0.00;0.00;;;;;;;4.17;78.46;100020.75;7361212;19;20010;-64
2023/03/14 08:16:04;;;;;;;0.00;0.00;;;;;;;4.18;78.27;100012.13;7357725;19;20015;-63
2023/03/14 08:18:30;;;;;;;0.00;0.00;;;;;;;4.36;78.38;100034.41;7356308;19;20757;-64
2023/03/14 08:20:55;;;;;;;0.00;0.00;;;;;;;4.40;78.24;100039.50;7357799;19;20021;-64
2023/03/14 08:23:21;;;;;;;0.00;0.00;;;;;;;4.52;77.90;100024.78;7359767;19;20014;-64
2023/03/14 08:25:49;;;;;;;0.00;0.00;;;;;;;4.59;77.84;100031.59;7361150;19;20049;-63
2023/03/14 08:28:14;;;;;;;0.00;0.00;;;;;;;4.60;77.71;100020.38;7357422;19;20522;-63
2023/03/14 08:30:39;;;;;;;0.00;0.00;;;;;;;4.65;77.65;100021.19;7357341;19;20036;-63
2023/03/14 08:33:05;;;;;;;0.00;0.00;;;;;;;4.71;78.17;100028.03;7358002;19;20086;-64
2023/03/14 08:35:30;;;;;;;0.00;0.00;;;;;;;4.77;78.26;100031.44;7358938;19;20368;-63
2023/03/14 08:37:56;;;;;;;0.10;0.10;;;;;;;4.84;77.88;100029.63;7343014;19;20018;-64
2023/03/14 08:40:21;;;;;;;0.00;0.00;;;;;;;4.91;78.12;100032.13;7358191;19;20406;-63
2023/03/14 08:42:47;;;;;;;0.05;0.05;;;;;;;4.99;77.73;100038.97;7349172;19;20014;-64
2023/03/14 08:45:16;;;;;;;0.10;0.10;;;;;;;5.06;77.62;100040.59;7359087;19;20014;-63
2023/03/14 08:47:41;;;;;;;0.05;0.05;;;;;;;5.02;78.06;100029.47;7354186;19;20030;-61
2023/03/14 08:50:10;;;;;;;0.00;0.00;;;;;;;5.23;78.06;100046.47;7361434;19;20015;-63
2023/03/14 08:52:37;;;;;;;0.00;0.00;;;;;;;5.36;78.19;100055.78;7355874;19;20014;-64
2023/03/14 08:55:03;;;;;;;0.00;0.00;;;;;;;5.33;77.67;100029.97;7360847;19;20620;-64
2023/03/14 08:57:29;;;;;;;0.00;0.00;;;;;;;5.42;77.84;100045.38;7359189;19;20010;-64
2023/03/14 08:59:55;;;;;;;0.00;0.00;;;;;;;5.73;78.17;100065.72;7360233;19;20032;-64
2023/03/14 09:02:22;;;;;;;0.00;0.00;;;;;;;5.91;77.98;100068.06;7357768;19;20078;-64
2023/03/14 09:04:47;;;;;;;0.10;0.10;;;;;;;6.11;78.15;100061.75;7359966;19;20662;-64
2023/03/14 09:07:13;;;;;;;0.00;0.00;;;;;;;6.33;78.22;100075.25;7360884;19;20021;-64
2023/03/14 09:09:38;;;;;;;0.10;0.10;;;;;;;6.54;77.98;100074.03;7359629;19;20688;-64
2023/03/14 09:12:04;;;;;;;0.10;0.10;;;;;;;6.73;77.47;100078.03;7358226;19;20677;-64
2023/03/14 09:14:31;;;;;;;0.00;0.00;;;;;;;6.91;77.36;100072.56;7355329;19;20021;-64
2023/03/14 09:16:57;;;;;;;0.00;0.00;;;;;;;7.00;76.95;100045.59;7355803;19;20037;-64
2023/03/14 09:19:22;;;;;;;0.10;0.10;;;;;;;7.34;76.95;100066.53;7356955;19;20014;-64
2023/03/14 09:21:48;;;;;;;0.00;0.00;;;;;;;7.49;76.94;100065.38;7356175;19;20029;-63
2023/03/14 09:24:14;;;;;;;0.10;0.10;;;;;;;7.67;76.89;100058.97;7358537;19;20006;-64
2023/03/14 09:26:39;;;;;;;0.00;0.00;;;;;;;7.95;76.03;100073.06;7355972;19;20006;-64
2023/03/14 09:29:05;;;;;;;0.10;0.10;;;;;;;8.19;76.38;100074.25;7358816;19;20474;-63
2023/03/14 09:31:30;;;;;;;0.10;0.10;;;;;;;8.39;75.37;100076.44;7343883;19;20578;-63
2023/03/14 09:33:56;;;;;;;0.05;0.05;;;;;;;8.53;75.05;100073.50;7359981;19;20006;-63
2023/03/14 09:36:22;;;;;;;0.10;0.10;;;;;;;8.80;74.75;100093.63;7355568;19;20008;-63
2023/03/14 09:38:48;;;;;;;0.10;0.10;;;;;;;8.98;73.86;100097.53;7358827;19;20010;-64
2023/03/14 09:41:33;;;;;;;0.00;0.00;;;;;;;9.25;73.87;100089.88;7358217;19;20011;-64
2023/03/14 09:44:16;;;;;;;0.10;0.10;;;;;;;9.48;73.09;100097.94;7359652;19;20045;-64
2023/03/14 09:46:47;;;;;;;0.10;0.10;;;;;;;9.64;73.12;100102.72;7356209;19;20021;-64
2023/03/14 09:49:27;;;;;;;0.10;0.10;;;;;;;9.83;72.53;100109.97;7357850;19;20357;-63
2023/03/14 09:51:56;;;;;;;0.10;0.10;;;;;;;9.99;72.11;100112.97;7357900;19;20857;-64
2023/03/14 09:54:46;;;;;;;0.00;0.00;;;;;;;10.27;71.78;100125.19;7358410;19;20010;-63
2023/03/14 09:57:16;;;;;;;0.03;0.03;;;;;;;10.44;69.93;100125.56;7358284;19;20022;-63
2023/03/14 09:59:45;;;;;;;0.10;0.10;;;;;;;10.56;68.83;100122.53;7354650;19;20006;-63
2023/03/14 10:02:17;;;;;;;0.05;0.05;;;;;;;10.68;68.73;100126.50;7358347;19;20026;-64
2023/03/14 10:04:45;;;;;;;0.10;0.10;;;;;;;10.80;68.54;100136.56;7356135;19;20089;-63
2023/03/14 10:07:15;;;;;;;0.10;0.10;;;;;;;10.94;67.27;100140.47;7357827;19;20035;-63
2023/03/14 10:09:43;;;;;;;0.10;0.10;;;;;;;10.87;67.82;100085.81;7358023;19;20030;-63
2023/03/14 10:12:09;;;;;;;0.10;0.10;;;;;;;11.28;66.81;100155.88;7354364;19;20010;-63
2023/03/14 10:14:47;;;;;;;0.10;0.10;;;;;;;11.45;67.44;100150.91;7354555;19;20022;-63
2023/03/14 10:17:14;;;;;;;0.10;0.10;;;;;;;11.53;65.45;100164.56;7357062;19;20018;-63
2023/03/14 10:19:59;;;;;;;0.08;0.08;;;;;;;11.58;65.26;100162.66;7356651;19;20557;-62
2023/03/14 10:22:30;;;;;;;0.05;0.05;;;;;;;11.44;63.14;100172.72;7355250;19;20111;-63
2023/03/14 10:25:01;;;;;;;0.10;0.10;;;;;;;11.32;63.16;100170.56;7356822;19;20014;-64
2023/03/14 10:27:30;;;;;;;0.08;0.08;;;;;;;10.88;64.04;100107.56;7356217;19;20013;-63
2023/03/14 10:30:01;;;;;;;0.10;0.10;;;;;;;11.27;63.68;100173.31;7355946;19;20006;-64
2023/03/14 10:32:38;;;;;;;0.00;0.00;;;;;;;11.17;64.34;100164.09;7356256;19;20014;-63
2023/03/14 10:35:19;;;;;;;0.10;0.10;;;;;;;11.01;64.30;100175.97;7356995;19;20017;-64
2023/03/14 10:37:56;;;;;;;0.10;0.10;;;;;;;10.98;63.25;100181.28;7355400;19;20014;-64
2023/03/14 10:40:27;;;;;;;;;;;;;;;10.96;64.58;100175.25;7358750;19;21041;-63
2023/03/14 10:42:55;;;;;;;0.10;0.10;;;;;;;10.89;63.58;100174.59;7356099;19;19911;-63
2023/03/14 10:45:37;;;;;;;0.10;0.10;;;;;;;10.97;65.35;100172.59;7354994;19;20513;-63
2023/03/14 10:48:23;;;;;;;0.10;0.10;;;;;;;11.04;64.90;100176.69;7356360;19;20726;-63
2023/03/14 10:50:54;;;;;;;0.00;0.00;;;;;;;11.05;62.21;100182.78;7356170;19;20505;-63
2023/03/14 10:53:20;;;;;;;0.10;0.10;;;;;;;10.94;61.30;100190.09;7356831;19;20511;-63
2023/03/14 10:55:46;;;;;;;0.10;0.10;;;;;;;10.85;62.81;100180.84;7353852;19;20145;-63
2023/03/14 10:58:23;;;;;;;0.03;0.03;;;;;;;10.77;61.91;100188.03;7354989;19;20463;-63
2023/03/14 11:00:55;;;;;;;0.10;0.10;;;;;;;10.55;63.26;100166.97;7354083;19;20842;-63
2023/03/14 11:03:22;;;;;;;0.08;0.08;;;;;;;10.61;62.57;100188.53;7355104;19;20007;-63
2023/03/14 11:05:51;;;;;;;0.03;0.03;;;;;;;10.67;63.63;100197.91;7355129;19;20014;-63
2023/03/14 11:08:41;;;;;;;0.00;0.00;;;;;;;10.84;64.84;100195.63;7354009;19;20689;-63
2023/03/14 11:11:19;;;;;;;0.03;0.03;;;;;;;10.99;64.12;100199.50;7353696;19;20014;-63
2023/03/14 11:14:08;;;;;;;0.00;0.00;;;;;;;11.08;62.06;100191.38;7356509;19;20082;-63
2023/03/14 11:17:15;;;;;;;0.10;0.10;;;;;;;11.34;64.63;100205.31;7350956;19;20098;-63
2023/03/14 11:20:17;;;;;;;0.10;0.10;;;;;;;11.51;63.47;100181.25;7249794;19;2004520;-63
2023/03/14 11:23:03;;;;;;;0.00;0.00;;;;;;;11.64;62.69;100185.97;7253854;19;2004222;-63
2023/03/14 11:25:36;;;;;;;0.00;0.00;;;;;;;11.68;60.60;100189.34;7360069;19;20459;-64
2023/03/14 11:28:18;;;;;;;0.00;0.00;;;;;;;11.72;60.85;100184.88;7362525;19;20101;-63
2023/03/14 11:30:49;;;;;;;0.10;0.10;;;;;;;11.76;60.96;100178.59;7361541;19;20035;-63
2023/03/14 11:33:17;;;;;;;0.00;0.00;;;;;;;11.66;59.62;100155.41;7363259;19;20010;-63
2023/03/14 11:36:03;;;;;;;0.05;0.05;;;;;;;11.78;61.01;100163.72;7360098;19;20027;-63
2023/03/14 11:38:41;;;;;;;0.10;0.10;;;;;;;11.76;59.44;100168.13;7359659;19;20021;-63
2023/03/14 11:41:15;;;;;;;0.10;0.10;;;;;;;11.74;57.76;100193.50;7360927;19;20022;-63
2023/03/14 11:43:47;;;;;;;0.00;0.00;;;;;;;11.64;55.85;100183.34;7361146;19;20010;-63